Главная страница
METAR-TAF:

METAR-TAF

Аэропорты :

Атырау, Казахстан

широта: 47-07-19N, долгота: 051-49-17E, высота над уровнем моря: -22 м

Текущие метеонаблюдения

Эта сводка был подготовлена 22 минут назад, в 03:30 UTC
Ветер 12 Узел от восточно-юго-восточный
Температура 6°C
Влажность 61%
Давление 1023 hPa
Видимость 10 км и более
Нет облачности ниже 1500 м, и нет кучево-дождевой облачности

METAR: UATG 100330Z 12006MPS CAVOK 06/M01 Q1023 R14/CLRD70 NOSIG RMK QFE769/1025

Время: 09:52 (03:52 UTC)

Прогноз

Эта сводка был подготовлена 4 часа и 52 минут назад, в 23:00 UTC
Прогноз действительный с 10-го 00 UTC до 10-го 24 UTC
Ветер 12 Узел от восточно-юго-восточный
Видимость: 3100 м
дымка
С 10-го 0500 UTC
Ветер 21 Узел от юго-восточный
Видимость 10 км и более
Отдельные облака на высоте 3300 фута, Кучево-дождевые.
изменения
С 10-го 16 UTC до 10-го 17 UTC
Ветер 12 Узел от восточный

TAF: UATG 092300Z 1000/1024 12006MPS 3100 BR NSC TX13/1011Z TN02/1004Z FM100500 14011MPS 9999 SCT033CB BECMG 1016/1017 08006MPS

Метеонаблюдения и прогнозы для более 4000 аэропортов (сводки METAR и TAF).

Имеющиеся станции представлены на карте желтыми и красными точками.

Чтобы увидеть название станции, наведите на нее мышь.

Затем щелкните, чтобы увидеть метеонаблюдения и метеопрогнозы.

Управление картой: чтобы увеличить масштаб, щелкните зеленые кнопки с черным крестиком; чтобы уменьшить масштаб, щелкните зеленую кнопку с тире; для просмотра соседних карт щелкайте зеленые стрелки.


METAR-TAF: